Time;durP1;ratioP1;P1;durP2;ratioP2;P2;SDS_P1;SDS_P2;PMS_P1;PMS_P2;Temp;Humidity;BMP_temperature;BMP_pressure;BME280_temperature;BME280_humidity;BME280_pressure;Samples;Min_cycle;Max_cycle;Signal;HPM_P1;HPM_P2
2024/01/14 00:01:30;;;;;;;10.67;2.87;;;26.30;72.70;;;;;;5042053;28;20195;-70
2024/01/14 00:03:57;;;;;;;7.90;2.93;;;26.30;73.60;;;;;;5038638;28;20276;-69
2024/01/14 00:06:25;;;;;;;15.53;3.20;;;26.50;73.40;;;;;;5040935;28;20187;-68
2024/01/14 00:08:52;;;;;;;13.33;3.17;;;26.70;72.30;;;;;;5038878;28;20184;-70
2024/01/14 00:11:20;;;;;;;9.00;2.80;;;26.70;72.00;;;;;;5046264;28;20532;-70
2024/01/14 00:13:47;;;;;;;14.80;3.30;;;26.70;71.70;;;;;;5042151;28;20191;-71
2024/01/14 00:16:16;;;;;;;9.47;3.13;;;26.70;71.80;;;;;;5042507;28;20575;-69
2024/01/14 00:18:43;;;;;;;10.93;2.77;;;26.40;72.80;;;;;;5042966;28;20221;-69
2024/01/14 00:21:10;;;;;;;10.63;3.27;;;26.40;73.40;;;;;;5047956;28;20183;-70
2024/01/14 00:23:38;;;;;;;11.73;3.30;;;26.50;72.90;;;;;;5033003;28;20643;-70
2024/01/14 00:26:05;;;;;;;10.97;3.10;;;26.60;72.70;;;;;;5045168;28;20177;-70
2024/01/14 00:28:32;;;;;;;13.10;3.30;;;26.40;73.50;;;;;;5050548;28;20217;-70
2024/01/14 00:31:00;;;;;;;11.20;2.50;;;26.70;73.10;;;;;;5046173;28;20185;-71
2024/01/14 00:33:27;;;;;;;12.27;3.20;;;26.90;72.90;;;;;;5048997;28;20188;-71
2024/01/14 00:35:54;;;;;;;12.57;2.80;;;27.00;71.70;;;;;;5050834;28;20246;-69
2024/01/14 00:38:21;;;;;;;10.43;3.20;;;27.20;72.60;;;;;;5045941;28;20270;-70
2024/01/14 00:40:49;;;;;;;12.33;3.10;;;27.40;70.50;;;;;;5047123;28;20188;-70
2024/01/14 00:43:17;;;;;;;12.27;3.17;;;27.70;70.60;;;;;;5044832;28;20231;-72
2024/01/14 00:45:44;;;;;;;10.83;3.10;;;27.60;70.90;;;;;;5043745;28;20191;-72
2024/01/14 00:48:11;;;;;;;8.57;2.90;;;27.50;70.00;;;;;;5050613;28;20518;-70
2024/01/14 00:50:39;;;;;;;13.97;3.07;;;27.70;70.30;;;;;;5038748;28;20353;-70
2024/01/14 00:53:06;;;;;;;9.10;3.13;;;27.90;70.60;;;;;;5040904;28;20229;-71
2024/01/14 00:55:34;;;;;;;10.00;2.97;;;27.80;69.70;;;;;;5042581;28;20648;-71
2024/01/14 00:58:01;;;;;;;15.03;3.10;;;27.40;71.10;;;;;;5042274;28;20745;-71
2024/01/14 01:00:28;;;;;;;15.90;2.97;;;27.00;72.30;;;;;;5045278;28;20179;-68
2024/01/14 01:02:56;;;;;;;13.43;3.10;;;27.00;73.20;;;;;;5049646;28;20184;-71
2024/01/14 01:05:24;;;;;;;12.23;3.43;;;27.40;71.70;;;;;;5043973;28;20207;-72
2024/01/14 01:07:51;;;;;;;11.03;3.03;;;27.30;72.10;;;;;;5032342;28;20185;-73
2024/01/14 01:10:19;;;;;;;13.20;3.47;;;27.30;72.50;;;;;;5034836;28;20183;-69
2024/01/14 01:12:46;;;;;;;16.03;3.97;;;27.30;72.30;;;;;;5045304;28;20188;-71
2024/01/14 01:15:14;;;;;;;11.50;3.77;;;27.40;72.60;;;;;;5042476;28;20253;-71
2024/01/14 01:17:41;;;;;;;19.20;3.50;;;27.80;72.50;;;;;;5040559;28;20180;-70
2024/01/14 01:20:09;;;;;;;17.87;3.77;;;27.70;71.60;;;;;;5034311;28;20192;-72
2024/01/14 01:22:37;;;;;;;17.60;4.53;;;27.50;72.80;;;;;;5049954;28;20553;-72
2024/01/14 01:25:04;;;;;;;15.37;3.87;;;27.00;73.60;;;;;;5044604;28;20212;-70
2024/01/14 01:27:32;;;;;;;13.23;3.57;;;26.70;75.10;;;;;;5044168;28;20355;-68
2024/01/14 01:30:00;;;;;;;13.67;3.73;;;26.70;75.90;;;;;;5045667;28;20223;-69
2024/01/14 01:32:27;;;;;;;18.80;3.83;;;26.80;75.40;;;;;;5037910;28;20184;-71
2024/01/14 01:34:55;;;;;;;12.10;3.57;;;27.30;75.00;;;;;;5042618;28;20196;-70
2024/01/14 01:37:22;;;;;;;11.87;3.70;;;27.50;73.50;;;;;;5041723;28;20215;-72
2024/01/14 01:39:52;;;;;;;11.17;3.37;;;27.30;73.90;;;;;;5034089;28;20207;-69
2024/01/14 01:42:20;;;;;;;10.63;2.60;;;27.10;74.50;;;;;;5033957;28;20239;-75
2024/01/14 01:44:49;;;;;;;6.77;3.07;;;27.60;73.40;;;;;;5063838;28;20183;-73
2024/01/14 01:47:17;;;;;;;5.00;1.90;;;28.10;71.70;;;;;;5062565;28;20228;-72
2024/01/14 01:49:49;;;;;;;5.07;2.17;;;28.20;70.40;;;;;;5047124;28;20187;-70
2024/01/14 01:52:18;;;;;;;10.60;3.00;;;27.80;71.30;;;;;;5054477;28;20267;-71
2024/01/14 01:54:50;;;;;;;9.93;2.80;;;28.20;71.70;;;;;;5052518;28;20562;-69
2024/01/14 01:57:19;;;;;;;10.37;3.20;;;28.10;72.20;;;;;;5065681;28;20194;-69
2024/01/14 01:59:47;;;;;;;16.23;4.20;;;28.30;71.70;;;;;;5060660;28;20246;-69
2024/01/14 02:02:19;;;;;;;11.80;3.50;;;28.20;72.30;;;;;;5051911;28;20184;-72
2024/01/14 02:04:50;;;;;;;11.83;3.87;;;27.80;73.00;;;;;;5055954;28;20180;-70
2024/01/14 02:07:20;;;;;;;14.57;3.83;;;27.30;74.70;;;;;;5056316;28;20191;-72
2024/01/14 02:09:48;;;;;;;11.20;4.13;;;27.10;75.40;;;;;;5060193;28;20211;-71
2024/01/14 02:12:18;;;;;;;19.87;4.70;;;26.40;79.70;;;;;;5062732;28;20589;-71
2024/01/14 02:14:48;;;;;;;11.80;3.53;;;25.80;83.70;;;;;;5068306;28;20187;-73
2024/01/14 02:17:18;;;;;;;21.93;5.77;;;25.30;86.00;;;;;;5042062;28;20227;-71
2024/01/14 02:19:46;;;;;;;17.77;5.77;;;25.00;87.30;;;;;;5053128;28;20230;-71
2024/01/14 02:22:30;;;;;;;18.50;6.70;;;24.80;87.40;;;;;;5061344;28;20190;-71
2024/01/14 02:25:01;;;;;;;22.87;8.37;;;24.60;88.70;;;;;;5029701;28;20183;-72
2024/01/14 02:27:33;;;;;;;24.90;8.73;;;24.40;89.10;;;;;;5041661;28;20186;-72
2024/01/14 02:30:09;;;;;;;24.73;12.43;;;24.30;89.80;;;;;;5053678;28;20219;-73
2024/01/14 02:32:43;;;;;;;32.27;14.37;;;24.30;90.40;;;;;;5054924;28;20229;-73
2024/01/14 02:35:13;;;;;;;27.70;15.40;;;24.40;90.50;;;;;;5058196;28;20209;-72
2024/01/14 02:37:43;;;;;;;25.67;14.43;;;24.50;90.90;;;;;;5058065;28;20216;-72
2024/01/14 02:40:12;;;;;;;23.10;14.77;;;24.60;90.80;;;;;;5065723;28;20302;-71
2024/01/14 02:42:41;;;;;;;21.60;14.73;;;24.60;90.70;;;;;;5067470;28;20302;-72
2024/01/14 02:45:10;;;;;;;23.63;13.93;;;24.60;90.40;;;;;;5041324;28;20286;-71
2024/01/14 02:47:38;;;;;;;20.03;13.53;;;24.50;89.80;;;;;;5056408;28;20267;-72
2024/01/14 02:50:06;;;;;;;20.03;11.80;;;24.60;90.00;;;;;;5066652;28;20659;-70
2024/01/14 02:52:36;;;;;;;15.37;10.03;;;24.50;88.80;;;;;;5060127;28;20218;-71
2024/01/14 02:55:05;;;;;;;20.93;9.30;;;24.40;88.00;;;;;;5037208;28;20208;-71
2024/01/14 02:57:33;;;;;;;18.80;8.23;;;24.40;87.70;;;;;;5056582;28;20337;-72
2024/01/14 03:00:02;;;;;;;21.63;8.03;;;24.60;86.50;;;;;;5064142;28;20190;-70
2024/01/14 03:02:34;;;;;;;12.90;6.40;;;24.80;85.70;;;;;;5053189;28;20191;-71
2024/01/14 03:05:04;;;;;;;10.33;5.30;;;25.00;83.80;;;;;;5055740;28;20188;-68
2024/01/14 03:07:39;;;;;;;16.17;5.30;;;25.10;83.10;;;;;;5049477;28;20653;-71
2024/01/14 03:10:12;;;;;;;15.70;5.07;;;25.30;82.90;;;;;;5060159;28;20175;-71
2024/01/14 03:12:40;;;;;;;13.80;5.10;;;25.50;83.20;;;;;;5045728;28;20187;-73
2024/01/14 03:15:09;;;;;;;12.93;4.73;;;25.70;82.80;;;;;;5066825;28;20204;-72
2024/01/14 03:17:39;;;;;;;13.93;5.10;;;25.60;81.80;;;;;;5057739;28;20187;-71
2024/01/14 03:20:08;;;;;;;13.27;4.70;;;25.80;82.20;;;;;;5037634;28;20202;-71
2024/01/14 03:22:37;;;;;;;9.87;3.40;;;26.00;82.10;;;;;;5056111;28;20215;-70
2024/01/14 03:25:06;;;;;;;13.37;4.00;;;25.80;79.80;;;;;;5065731;28;20645;-70
2024/01/14 03:27:36;;;;;;;14.93;4.00;;;25.70;80.50;;;;;;5055132;28;20199;-72
2024/01/14 03:30:06;;;;;;;14.60;4.73;;;25.80;81.30;;;;;;5032149;28;20184;-69
2024/01/14 03:32:34;;;;;;;11.70;3.77;;;25.80;81.50;;;;;;5043288;28;20182;-69
2024/01/14 03:35:02;;;;;;;17.63;3.70;;;25.80;81.10;;;;;;5067759;28;20209;-70
2024/01/14 03:37:31;;;;;;;13.13;4.20;;;25.80;81.00;;;;;;5061268;28;20187;-68
2024/01/14 03:40:01;;;;;;;13.80;3.70;;;25.80;81.50;;;;;;5034852;28;20188;-72
2024/01/14 03:42:29;;;;;;;12.03;3.53;;;25.80;81.10;;;;;;5037577;28;20230;-72
2024/01/14 03:44:57;;;;;;;14.23;3.60;;;25.70;80.20;;;;;;5058905;28;20192;-70
2024/01/14 03:47:25;;;;;;;16.80;4.13;;;25.60;80.10;;;;;;5048117;28;20528;-71
2024/01/14 03:49:59;;;;;;;18.00;4.60;;;25.60;80.40;;;;;;5051689;28;20329;-70
2024/01/14 03:52:27;;;;;;;11.30;3.40;;;25.60;81.10;;;;;;5057411;28;20294;-71
2024/01/14 03:55:00;;;;;;;11.13;3.80;;;25.80;80.70;;;;;;5036942;28;20266;-72
2024/01/14 03:57:28;;;;;;;15.97;3.90;;;26.10;80.50;;;;;;5034146;28;20193;-69
2024/01/14 03:59:56;;;;;;;14.90;3.70;;;26.60;78.70;;;;;;5050819;28;20188;-72
2024/01/14 04:02:24;;;;;;;11.73;3.60;;;26.70;78.60;;;;;;5051703;28;20208;-70
2024/01/14 04:04:52;;;;;;;14.47;3.73;;;26.70;77.90;;;;;;5064883;28;20223;-70
2024/01/14 04:07:20;;;;;;;20.43;4.13;;;26.60;78.20;;;;;;5059932;28;20332;-68
2024/01/14 04:09:48;;;;;;;21.17;4.63;;;26.40;79.60;;;;;;5058237;28;20187;-72
2024/01/14 04:12:16;;;;;;;16.20;3.80;;;26.20;80.00;;;;;;5058288;28;20184;-69
2024/01/14 04:14:49;;;;;;;10.33;2.97;;;25.90;80.80;;;;;;5051200;28;20183;-73
2024/01/14 04:17:18;;;;;;;17.53;4.10;;;25.30;80.40;;;;;;5040605;28;20197;-71
2024/01/14 04:19:46;;;;;;;15.70;4.50;;;25.10;82.00;;;;;;5036666;28;20669;-70
2024/01/14 04:22:14;;;;;;;13.50;4.67;;;25.00;83.40;;;;;;5059735;28;20281;-69
2024/01/14 04:24:44;;;;;;;15.00;5.27;;;24.80;85.00;;;;;;5053986;28;20193;-68
2024/01/14 04:27:12;;;;;;;16.43;6.07;;;24.50;85.90;;;;;;5057824;28;20226;-71
2024/01/14 04:29:40;;;;;;;17.50;5.87;;;24.50;86.60;;;;;;5055053;28;20202;-69
2024/01/14 04:32:08;;;;;;;22.20;7.47;;;24.60;87.30;;;;;;5048709;28;20199;-70
2024/01/14 04:34:36;;;;;;;17.03;7.23;;;24.80;87.60;;;;;;5060316;28;20199;-72
2024/01/14 04:37:04;;;;;;;20.10;7.03;;;24.80;87.10;;;;;;5058932;28;20555;-71
2024/01/14 04:39:31;;;;;;;22.40;8.10;;;24.70;86.40;;;;;;5049838;28;20191;-70
2024/01/14 04:42:00;;;;;;;16.53;5.53;;;24.60;86.40;;;;;;5058021;28;20550;-70
2024/01/14 04:44:32;;;;;;;14.73;5.70;;;24.50;85.20;;;;;;5067683;28;20263;-71
2024/01/14 04:46:59;;;;;;;15.97;6.20;;;24.50;84.90;;;;;;5054910;28;20586;-72
2024/01/14 04:49:29;;;;;;;15.60;5.63;;;24.60;85.30;;;;;;5058966;28;20179;-72
2024/01/14 04:51:56;;;;;;;10.53;5.00;;;24.60;84.90;;;;;;5063807;28;20630;-71
2024/01/14 04:54:23;;;;;;;12.77;4.20;;;24.60;83.70;;;;;;5050885;28;20192;-71
2024/01/14 04:56:52;;;;;;;18.50;5.00;;;24.70;83.70;;;;;;5054280;28;20674;-72
2024/01/14 04:59:19;;;;;;;15.67;4.07;;;24.80;83.30;;;;;;5050884;28;20183;-72
2024/01/14 05:01:47;;;;;;;13.37;3.50;;;24.80;81.70;;;;;;5049855;28;20188;-72
2024/01/14 05:04:14;;;;;;;15.57;4.17;;;24.90;81.00;;;;;;5053133;28;20172;-71
2024/01/14 05:06:41;;;;;;;18.17;5.30;;;24.90;81.70;;;;;;5051410;28;20191;-72
2024/01/14 05:09:09;;;;;;;20.67;4.93;;;25.00;82.60;;;;;;5059468;28;20495;-70
2024/01/14 05:11:36;;;;;;;22.53;5.40;;;25.10;83.10;;;;;;5058674;28;20214;-72
2024/01/14 05:14:04;;;;;;;17.13;5.20;;;25.00;82.80;;;;;;5051838;28;20179;-70
2024/01/14 05:16:31;;;;;;;21.33;5.10;;;24.90;83.40;;;;;;5050991;28;20219;-73
2024/01/14 05:18:58;;;;;;;18.40;5.23;;;24.80;83.50;;;;;;5052775;28;20181;-69
2024/01/14 05:21:26;;;;;;;22.13;5.30;;;24.90;83.50;;;;;;5053423;28;20207;-71
2024/01/14 05:23:53;;;;;;;16.80;5.03;;;25.00;83.20;;;;;;5051870;28;20181;-70
2024/01/14 05:26:24;;;;;;;21.10;4.87;;;25.00;82.80;;;;;;5058972;28;20183;-69
2024/01/14 05:28:52;;;;;;;18.73;4.23;;;25.10;82.40;;;;;;5048137;28;20192;-70
2024/01/14 05:31:19;;;;;;;22.87;5.50;;;25.00;81.50;;;;;;5046661;28;20199;-68
2024/01/14 05:34:12;;;;;;;15.43;4.13;;;25.00;81.60;;;;;;5061318;28;20533;-72
2024/01/14 05:36:40;;;;;;;20.37;4.47;;;25.10;81.00;;;;;;5055080;28;20386;-71
2024/01/14 05:39:07;;;;;;;19.17;4.93;;;25.20;81.10;;;;;;5061281;28;20204;-70
2024/01/14 05:41:35;;;;;;;21.50;4.10;;;25.20;80.70;;;;;;5064271;28;20672;-70
2024/01/14 05:44:02;;;;;;;22.93;4.53;;;25.30;80.60;;;;;;5060900;28;20218;-71
2024/01/14 05:46:30;;;;;;;17.97;4.77;;;25.30;80.20;;;;;;5058845;28;20195;-70
2024/01/14 05:48:57;;;;;;;23.60;4.73;;;25.30;80.60;;;;;;5055118;28;20187;-74
2024/01/14 05:51:28;;;;;;;18.23;3.93;;;25.40;79.40;;;;;;5053355;28;20212;-72
2024/01/14 05:53:55;;;;;;;20.90;4.37;;;25.30;79.10;;;;;;5053797;28;20176;-69
2024/01/14 05:56:28;;;;;;;14.07;3.80;;;25.30;79.20;;;;;;5054505;28;20266;-70
2024/01/14 05:58:56;;;;;;;17.03;3.90;;;25.20;79.90;;;;;;5059430;28;20192;-70
2024/01/14 06:01:24;;;;;;;19.80;3.87;;;25.10;79.80;;;;;;5059535;28;20183;-70
2024/01/14 06:03:51;;;;;;;20.13;4.47;;;25.10;79.60;;;;;;5059659;28;20275;-70
2024/01/14 06:06:18;;;;;;;16.50;4.47;;;25.10;79.90;;;;;;5059709;28;20182;-69
2024/01/14 06:08:46;;;;;;;15.83;3.67;;;24.90;80.20;;;;;;5058053;28;20192;-70
2024/01/14 06:11:13;;;;;;;17.37;4.00;;;25.10;80.40;;;;;;5058561;28;20184;-69
2024/01/14 06:13:44;;;;;;;13.50;4.10;;;25.00;80.20;;;;;;5057154;28;20195;-71
2024/01/14 06:16:11;;;;;;;23.03;4.37;;;24.90;80.40;;;;;;5047830;28;20203;-70
2024/01/14 06:18:40;;;;;;;25.10;4.63;;;24.90;80.90;;;;;;5053587;28;20240;-68
2024/01/14 06:21:08;;;;;;;22.57;4.80;;;25.10;80.90;;;;;;5052427;28;20271;-69
2024/01/14 06:23:35;;;;;;;19.67;4.20;;;25.20;80.50;;;;;;5059870;28;20207;-70
2024/01/14 06:26:03;;;;;;;24.20;4.60;;;25.30;79.80;;;;;;5062815;28;20228;-69
2024/01/14 06:28:30;;;;;;;22.20;4.87;;;25.30;79.60;;;;;;5058108;28;20175;-68
2024/01/14 06:30:58;;;;;;;18.80;4.43;;;25.30;78.50;;;;;;5060791;28;20556;-70
2024/01/14 06:33:25;;;;;;;19.97;4.73;;;25.50;78.60;;;;;;5045976;28;20176;-69
2024/01/14 06:35:52;;;;;;;23.37;4.93;;;25.50;79.00;;;;;;5065334;28;20712;-70
2024/01/14 06:38:20;;;;;;;20.63;5.10;;;25.40;79.00;;;;;;5053572;28;20287;-69
2024/01/14 06:40:47;;;;;;;17.57;3.90;;;25.30;79.10;;;;;;5053574;28;20188;-68
2024/01/14 06:43:14;;;;;;;18.37;4.17;;;25.20;79.60;;;;;;5052758;28;20228;-69
2024/01/14 06:45:42;;;;;;;17.27;4.23;;;25.00;79.80;;;;;;5056955;28;20577;-69
2024/01/14 06:48:09;;;;;;;17.53;4.67;;;24.90;80.80;;;;;;5054037;28;20233;-70
2024/01/14 06:50:36;;;;;;;12.77;4.57;;;24.80;81.50;;;;;;5050910;28;20191;-70
2024/01/14 06:53:04;;;;;;;18.00;4.87;;;24.90;82.90;;;;;;5062022;28;20637;-69
2024/01/14 06:55:31;;;;;;;23.27;5.27;;;24.70;82.90;;;;;;5053925;28;20283;-70
2024/01/14 06:57:59;;;;;;;19.00;5.37;;;24.50;82.60;;;;;;5051900;28;20188;-68
2024/01/14 07:00:26;;;;;;;21.57;5.07;;;24.50;82.60;;;;;;5058125;28;20816;-72
2024/01/14 07:02:53;;;;;;;17.20;4.87;;;24.40;82.00;;;;;;5060894;28;20188;-69
2024/01/14 07:05:21;;;;;;;20.17;5.03;;;24.50;82.40;;;;;;5059251;28;20180;-69
2024/01/14 07:07:48;;;;;;;23.70;5.07;;;24.50;82.10;;;;;;5056726;28;20172;-70
2024/01/14 07:10:16;;;;;;;23.50;4.87;;;24.60;82.00;;;;;;5057798;28;20172;-70
2024/01/14 07:12:47;;;;;;;16.67;4.80;;;24.70;82.00;;;;;;5066453;28;20187;-70
2024/01/14 07:15:14;;;;;;;20.50;4.57;;;24.70;81.70;;;;;;5059323;28;20231;-70
2024/01/14 07:17:42;;;;;;;14.00;3.83;;;24.70;81.40;;;;;;5052499;28;20713;-70
2024/01/14 07:20:11;;;;;;;17.03;4.17;;;24.70;80.90;;;;;;5047272;28;20179;-70
2024/01/14 07:22:39;;;;;;;16.77;4.30;;;24.70;80.90;;;;;;5056594;28;20190;-71
2024/01/14 07:25:08;;;;;;;19.90;4.30;;;24.60;81.40;;;;;;5048504;28;20191;-71
2024/01/14 07:27:36;;;;;;;11.27;3.73;;;24.60;81.40;;;;;;5053056;28;20314;-71
2024/01/14 07:30:08;;;;;;;22.23;5.43;;;24.60;81.90;;;;;;5047047;28;20734;-70
2024/01/14 07:32:35;;;;;;;17.47;4.53;;;24.50;82.30;;;;;;5050423;28;20176;-71
2024/01/14 07:35:03;;;;;;;20.17;4.63;;;24.60;82.60;;;;;;5056600;28;20179;-71
2024/01/14 07:37:33;;;;;;;20.10;5.67;;;24.60;82.20;;;;;;5057286;28;20199;-72
2024/01/14 07:40:01;;;;;;;19.80;4.93;;;24.70;82.20;;;;;;5052415;28;20180;-74
2024/01/14 07:42:29;;;;;;;17.50;4.17;;;24.70;82.50;;;;;;5051724;28;20219;-70
2024/01/14 07:44:56;;;;;;;20.10;5.57;;;24.60;82.30;;;;;;5058511;28;20267;-70
2024/01/14 07:47:24;;;;;;;24.93;6.40;;;24.60;83.60;;;;;;5062380;28;20190;-71
2024/01/14 07:49:51;;;;;;;21.30;6.53;;;24.50;85.10;;;;;;5052778;28;20654;-71
2024/01/14 07:52:18;;;;;;;18.73;7.17;;;24.20;85.90;;;;;;5054047;28;20218;-69
2024/01/14 07:54:46;;;;;;;22.43;7.80;;;24.10;86.80;;;;;;5060391;28;20598;-71
2024/01/14 07:57:13;;;;;;;20.77;8.37;;;23.90;86.90;;;;;;5056168;28;20202;-70
2024/01/14 07:59:40;;;;;;;22.10;9.67;;;23.80;87.40;;;;;;5055187;28;20187;-69
2024/01/14 08:02:08;;;;;;;19.07;10.30;;;23.60;87.60;;;;;;5059900;28;20242;-68
2024/01/14 08:04:35;;;;;;;14.27;11.53;;;23.40;88.40;;;;;;5054564;28;20187;-73
2024/01/14 08:07:03;;;;;;;22.47;12.33;;;23.20;89.40;;;;;;5055197;28;20187;-69
2024/01/14 08:09:30;;;;;;;20.07;15.03;;;23.10;90.00;;;;;;5059529;28;20191;-68
2024/01/14 08:11:58;;;;;;;22.37;15.47;;;23.00;90.40;;;;;;5056631;28;20542;-70
2024/01/14 08:14:25;;;;;;;20.47;16.33;;;22.90;90.50;;;;;;5061008;28;20219;-69
2024/01/14 08:16:52;;;;;;;30.37;17.87;;;22.90;91.00;;;;;;5047960;28;20230;-69
2024/01/14 08:19:21;;;;;;;26.97;19.93;;;22.90;91.20;;;;;;5039653;28;20240;-70
2024/01/14 08:21:48;;;;;;;32.53;24.00;;;22.90;91.40;;;;;;5052184;28;20270;-69
2024/01/14 08:24:15;;;;;;;25.23;22.50;;;22.90;91.50;;;;;;5054617;28;20188;-70
2024/01/14 08:26:49;;;;;;;26.37;23.73;;;22.80;91.60;;;;;;5053968;28;20204;-68
2024/01/14 08:29:16;;;;;;;28.70;25.43;;;22.80;91.50;;;;;;5066233;28;20270;-69
2024/01/14 08:31:44;;;;;;;32.50;25.47;;;22.80;91.70;;;;;;5058830;28;20192;-72
2024/01/14 08:34:11;;;;;;;30.40;27.17;;;22.80;91.80;;;;;;5063017;28;20550;-74
2024/01/14 08:36:39;;;;;;;32.07;29.10;;;22.80;91.70;;;;;;5055650;28;20215;-70
2024/01/14 08:39:06;;;;;;;30.00;26.70;;;22.80;91.60;;;;;;5053923;28;20229;-68
2024/01/14 08:41:33;;;;;;;33.13;27.87;;;22.70;91.60;;;;;;5049443;28;20184;-67
2024/01/14 08:44:06;;;;;;;37.47;27.27;;;22.70;91.60;;;;;;5046430;28;20307;-70
2024/01/14 08:46:36;;;;;;;36.17;31.07;;;22.70;91.90;;;;;;5062024;28;20194;-71
2024/01/14 08:49:03;;;;;;;36.67;30.83;;;22.80;91.80;;;;;;5056565;28;20231;-69
2024/01/14 08:51:31;;;;;;;42.47;34.27;;;22.80;91.90;;;;;;5056073;28;20190;-70
2024/01/14 08:54:00;;;;;;;39.63;34.97;;;22.80;92.00;;;;;;5054753;28;20238;-71
2024/01/14 08:56:30;;;;;;;44.03;39.47;;;22.80;91.90;;;;;;5059101;28;20645;-71
2024/01/14 08:58:59;;;;;;;44.17;39.57;;;22.80;91.90;;;;;;5056444;28;20271;-70
2024/01/14 09:01:27;;;;;;;43.60;39.10;;;22.80;92.00;;;;;;5060176;28;20192;-69
2024/01/14 09:03:54;;;;;;;38.53;34.57;;;22.70;91.90;;;;;;5059939;28;20238;-70
2024/01/14 09:06:22;;;;;;;38.80;35.50;;;22.70;91.70;;;;;;5062206;28;20187;-70
2024/01/14 09:08:49;;;;;;;37.27;34.33;;;22.50;91.50;;;;;;5054681;28;20194;-69
2024/01/14 09:11:17;;;;;;;36.73;33.43;;;22.30;91.30;;;;;;5061752;28;20217;-70
2024/01/14 09:13:48;;;;;;;42.03;38.53;;;22.10;91.20;;;;;;5061773;28;20192;-71
2024/01/14 09:16:16;;;;;;;46.80;42.63;;;22.00;91.90;;;;;;5058498;28;20247;-72
2024/01/14 09:18:44;;;;;;;49.80;44.83;;;21.90;92.00;;;;;;5054007;28;20263;-71
2024/01/14 09:21:11;;;;;;;55.03;49.70;;;21.90;92.40;;;;;;5053954;28;20190;-73
2024/01/14 09:23:38;;;;;;;60.77;54.90;;;22.10;92.90;;;;;;5056762;28;20576;-70
2024/01/14 09:26:06;;;;;;;63.07;56.53;;;22.30;93.20;;;;;;5057025;28;20643;-71
2024/01/14 09:28:35;;;;;;;67.10;61.23;;;22.30;93.20;;;;;;5056672;28;20203;-70
2024/01/14 09:31:03;;;;;;;71.97;65.97;;;22.30;93.10;;;;;;5051546;28;20180;-71
2024/01/14 09:33:30;;;;;;;78.67;71.53;;;22.40;93.20;;;;;;5054501;28;20196;-69
2024/01/14 09:36:05;;;;;;;81.20;74.20;;;22.40;93.20;;;;;;5062518;28;20665;-71
2024/01/14 09:38:33;;;;;;;77.60;70.30;;;22.30;93.10;;;;;;5056300;28;20184;-70
2024/01/14 09:41:41;;;;;;;77.90;71.33;;;22.30;93.10;;;;;;5054604;28;20225;-72
2024/01/14 09:44:15;;;;;;;83.37;76.03;;;22.30;93.00;;;;;;5051705;28;20709;-68
2024/01/14 09:46:43;;;;;;;82.97;75.87;;;22.30;93.00;;;;;;5054457;28;20758;-69
2024/01/14 09:49:10;;;;;;;84.63;76.73;;;22.30;92.90;;;;;;5054418;28;20594;-70
2024/01/14 09:51:39;;;;;;;88.53;80.37;;;22.40;92.80;;;;;;5054923;28;20191;-69
2024/01/14 09:54:06;;;;;;;91.80;83.47;;;22.40;92.70;;;;;;5057393;28;20187;-68
2024/01/14 09:56:35;;;;;;;92.30;84.00;;;22.50;92.70;;;;;;5050518;28;20793;-68
2024/01/14 09:59:07;;;;;;;91.37;83.77;;;22.40;92.60;;;;;;5057519;28;20188;-70
2024/01/14 10:01:34;;;;;;;87.70;79.90;;;22.50;92.60;;;;;;5059499;28;20532;-70
2024/01/14 10:04:05;;;;;;;87.60;79.73;;;22.50;92.50;;;;;;5050358;28;20188;-69
2024/01/14 10:06:32;;;;;;;90.70;83.20;;;22.40;92.50;;;;;;5049169;28;20187;-73
2024/01/14 10:09:00;;;;;;;92.03;83.40;;;22.40;92.30;;;;;;5057180;28;20276;-72
2024/01/14 10:11:27;;;;;;;89.57;81.80;;;22.50;92.40;;;;;;5065397;28;20186;-69
2024/01/14 10:13:55;;;;;;;86.53;78.77;;;22.50;92.30;;;;;;5040252;28;20537;-69
2024/01/14 10:16:23;;;;;;;87.00;78.90;;;22.40;92.10;;;;;;5067299;28;20681;-71
2024/01/14 10:18:55;;;;;;;86.93;80.00;;;22.40;92.20;;;;;;5058915;28;20180;-74
2024/01/14 10:21:24;;;;;;;88.00;80.13;;;22.50;92.10;;;;;;5050835;28;20223;-75
2024/01/14 10:23:51;;;;;;;83.50;76.70;;;22.50;92.00;;;;;;5057207;28;20552;-71
2024/01/14 10:26:23;;;;;;;88.00;80.10;;;22.50;91.90;;;;;;5055120;28;20191;-74
2024/01/14 10:28:50;;;;;;;83.50;76.27;;;22.50;91.80;;;;;;5055552;28;20176;-74
2024/01/14 10:31:18;;;;;;;87.60;79.47;;;22.40;91.60;;;;;;5033314;28;20187;-74
2024/01/14 10:33:46;;;;;;;94.43;87.23;;;22.50;91.80;;;;;;5055229;28;20178;-71
2024/01/14 10:36:14;;;;;;;97.57;91.17;;;22.30;91.70;;;;;;5066701;28;20320;-72
2024/01/14 10:38:41;;;;;;;112.80;104.20;;;22.00;92.40;;;;;;5061639;28;20215;-72
2024/01/14 10:41:09;;;;;;;107.30;99.27;;;22.00;93.10;;;;;;5045268;28;20181;-76
2024/01/14 10:43:36;;;;;;;117.80;108.70;;;22.00;93.40;;;;;;5052074;28;20231;-73
2024/01/14 10:46:07;;;;;;;120.87;111.90;;;21.90;93.70;;;;;;5060960;28;20193;-71
2024/01/14 10:48:39;;;;;;;134.57;125.00;;;22.00;93.90;;;;;;5050991;28;20188;-72
2024/01/14 10:51:11;;;;;;;134.77;125.20;;;21.90;93.90;;;;;;5053955;28;20180;-69
2024/01/14 10:53:47;;;;;;;145.53;135.20;;;22.00;94.00;;;;;;5054815;28;20232;-73
2024/01/14 10:56:19;;;;;;;160.33;149.30;;;21.90;94.10;;;;;;5059495;28;20590;-72
2024/01/14 10:58:51;;;;;;;170.30;158.97;;;22.00;94.20;;;;;;5050499;28;20597;-71
2024/01/14 11:01:23;;;;;;;186.77;174.93;;;22.00;94.20;;;;;;5032109;28;20201;-73
2024/01/14 11:04:01;;;;;;;191.60;180.20;;;22.00;94.20;;;;;;5055707;28;20192;-75
2024/01/14 11:06:28;;;;;;;198.87;186.73;;;21.80;94.10;;;;;;5052954;28;20184;-74
2024/01/14 11:09:01;;;;;;;209.07;197.33;;;21.80;94.20;;;;;;5052645;28;20192;-73
2024/01/14 11:11:42;;;;;;;202.70;192.00;;;21.60;94.00;;;;;;5044931;28;20220;-73
2024/01/14 11:14:24;;;;;;;206.07;195.07;;;21.40;94.20;;;;;;5048609;28;20188;-72
2024/01/14 11:17:14;;;;;;;221.57;209.47;;;21.30;94.30;;;;;;5055008;28;20291;-73
2024/01/14 11:19:43;;;;;;;227.80;215.00;;;21.30;94.40;;;;;;5040822;28;20192;-75
2024/01/14 11:22:32;;;;;;;228.40;215.83;;;21.30;94.60;;;;;;5060555;28;20267;-77
2024/01/14 11:25:00;;;;;;;233.57;220.90;;;21.40;94.70;;;;;;5060579;28;20195;-75
2024/01/14 11:27:27;;;;;;;247.50;234.53;;;21.40;94.80;;;;;;5055573;28;20186;-73
2024/01/14 11:29:55;;;;;;;254.93;240.97;;;21.40;94.80;;;;;;5058978;28;20179;-74
2024/01/14 11:32:23;;;;;;;264.73;250.73;;;21.50;94.90;;;;;;5051844;28;20263;-73
2024/01/14 11:34:59;;;;;;;255.83;243.13;;;21.50;94.80;;;;;;5052680;28;20187;-79
2024/01/14 11:37:29;;;;;;;281.93;268.27;;;21.30;94.60;;;;;;5053721;28;20666;-73
2024/01/14 11:40:27;;;;;;;281.43;267.63;;;21.30;94.80;;;;;;5052890;28;20515;-76
2024/01/14 11:43:05;;;;;;;295.83;281.17;;;21.30;94.90;;;;;;5052597;28;20332;-74
2024/01/14 11:45:36;;;;;;;305.50;290.63;;;21.30;94.90;;;;;;5052167;28;20191;-73
2024/01/14 11:48:09;;;;;;;303.47;288.53;;;21.30;95.00;;;;;;5044564;28;20716;-73
2024/01/14 11:50:37;;;;;;;312.87;297.67;;;21.30;95.00;;;;;;5049801;28;20189;-73
2024/01/14 11:53:07;;;;;;;310.83;295.63;;;21.30;95.20;;;;;;5049395;28;20555;-75
2024/01/14 11:55:36;;;;;;;326.70;310.70;;;21.30;95.20;;;;;;5051450;28;20253;-75
2024/01/14 11:58:11;;;;;;;340.87;324.00;;;21.40;95.20;;;;;;5051132;28;20219;-76
2024/01/14 12:00:44;;;;;;;341.70;324.23;;;21.50;95.40;;;;;;5050652;28;20180;-74
2024/01/14 12:03:19;;;;;;;357.93;338.27;;;21.50;95.30;;;;;;5049018;28;20190;-75
2024/01/14 12:05:46;;;;;;;373.57;352.57;;;21.50;95.40;;;;;;5055405;28;20180;-75
2024/01/14 12:08:16;;;;;;;370.30;349.17;;;21.60;95.40;;;;;;5059053;28;20176;-74
2024/01/14 12:10:44;;;;;;;360.47;339.47;;;21.60;95.30;;;;;;5052886;28;20175;-77
2024/01/14 12:13:14;;;;;;;369.83;348.50;;;21.50;95.30;;;;;;5063220;28;20712;-75
2024/01/14 12:15:41;;;;;;;384.27;362.23;;;21.50;95.20;;;;;;5043714;28;20242;-74
2024/01/14 12:18:09;;;;;;;395.90;374.03;;;21.50;95.20;;;;;;5049666;28;20176;-71
2024/01/14 12:20:36;;;;;;;370.63;349.53;;;21.50;95.20;;;;;;5052271;28;20198;-71
2024/01/14 12:23:05;;;;;;;402.63;380.73;;;21.50;95.20;;;;;;5054006;28;20248;-74
2024/01/14 12:25:33;;;;;;;397.00;374.27;;;21.60;95.20;;;;;;5065927;28;20198;-71
2024/01/14 12:28:01;;;;;;;378.10;357.23;;;21.50;95.00;;;;;;5055461;28;20199;-72
2024/01/14 12:30:34;;;;;;;397.63;375.93;;;21.50;95.00;;;;;;5050820;28;20233;-72
2024/01/14 12:33:10;;;;;;;377.97;357.60;;;21.60;94.90;;;;;;5054973;28;20223;-74
2024/01/14 12:35:38;;;;;;;409.50;387.63;;;21.60;94.90;;;;;;5062263;28;20195;-71
2024/01/14 12:38:08;;;;;;;387.60;366.03;;;21.60;94.80;;;;;;5061457;28;20180;-72
2024/01/14 12:40:37;;;;;;;426.27;402.53;;;21.60;94.90;;;;;;5060529;28;20198;-71